罗盘
风向 的 风向 260° Gaillac Lisle Sur Tarn Airport 7/25
风: 3 kt, 1 beaufort

2 kt

0 kt
改变
0 1.000 2.000 3.000 4.000 5.000
CAVOK
METAR LFCK 220500Z AUTO 26003KT CAVOK 17/16 Q1014

METAR Gaillac Lisle Sur Tarn Airport

Gaillac Lisle Sur Tarn Airport是Gaillac,法国中的小机场。 该机场有一条跑道: 7/25.

这份报告是针对2022年5月22日 07:00, 当地时间在Castres-Mazamet Airport进行的。

机场观察

风向为260°,速度为3 kt。

天气为CAVOK。这意味着在5.000 ft或MSA(最低安全高度)以下(以较高者为准)以下没有云。这也意味着没有观测到积雨云或高耸的积云,可见度为10 km 或者更多或更高。此外,不会有雾,降雨或其他重要天气。

温度和风寒是17 °C。 露点为16 °C,相对湿度为94%。 海平面上的气压为1014 hPa (QNH)。

白天

今天,太阳从06:19升起,在21:18降落。 这适用于Gaillac Lisle Sur Tarn Airport,世界夏令时可能有所不同。 当地时间与世界标准时间之间的时差为+2 小时。 夏令时目前正在进行中。

公司介绍

我们没有关于这个机场的公司信息。

体会

到Vliegles.nl去找飞行课程,跳伞和其他飞行体验。 浏览页面,了解Gaillac Lisle Sur Tarn Airport附近所有可用的活动。 你也可以使用搜索功能来寻找你所在地附近的特定飞行课程、跳伞或其他飞行体验。

您会帮助我们保持Metar-Taf.com正常运行吗?
您的贡献有助于网站的进一步开发并支付费用。

没有更多广告

您是捐款5美元还是更多?然后,我们将永远不会再向您展示广告,这是我们永恒的感谢!
捐赠前先登录

跑道

Id 标题 侧风 逆风
7/25 070°-250° 2 kt

逆风成分最大的方向会被突出显示,并用于横风计算。 这并不一定意味着这个方向在使用。

温度 & 天气

温度 17 °C
露点 16 °C
相对湿度 94%
Kp-index 3  

公司介绍

新增公司

下载我们的应用程序

在您的手机和平板电脑上轻松访问所有航空天气。
有许多网站上没有的功能,如离线支持和个人机场列表。

Studio Eveline

Benalmádena
España

我们和第三方通过cookies跟踪您在我们网站上的上网行为。如果您继续,我们认为您同意我们的cookie政策。 了解更多